This is the latest recevied weather packets stored in our database for station/object WQ5C-13. If no packets are shown the sender has not sent any weather packets the latest 10 day(s).
| Time | Temp. | Humidity | Pressure | Rain* | Wind** | Luminosity | Snow |
|---|---|---|---|---|---|---|---|
| 1777692616 | 11.67° C | 89% | 1016.9 hPa | 0 mm | - | - | - |
| 1777690215 | 12.22° C | 90% | 1016.2 hPa | 0 mm | - | - | - |
| 1777686015 | 12.78° C | 93% | 1015.1 hPa | 0 mm | - | - | - |
| 1777684815 | 13.33° C | 93% | 1015 hPa | 0 mm | - | - | - |
| 1777682415 | 13.33° C | 91% | 1014.3 hPa | 0 mm | - | - | - |
| 1777681215 | 13.33° C | 91% | 1014 hPa | 0 mm | - | - | - |
| 1777680015 | 13.89° C | 92% | 1013.5 hPa | 0 mm | - | - | - |
| 1777679415 | 13.89° C | 92% | 1013.3 hPa | 0 mm | - | - | - |
| 1777677015 | 14.44° C | 93% | 1012.9 hPa | 0 mm | - | - | - |
| 1777674016 | 14.44° C | 98% | 1012.4 hPa | 0.25 mm | - | - | - |
| 1777671015 | 15° C | 97% | 1011.9 hPa | 0.25 mm | - | - | - |
| 1777668015 | 15.56° C | 94% | 1011.8 hPa | 0 mm | - | - | - |
| 1777665636 | 16.11° C | 93% | 1010.4 hPa | 0 mm | - | - | - |
| 1777662636 | 15.56° C | 100% | 1011.4 hPa | 0.25 mm | - | - | - |
| 1777660216 | 15° C | 100% | 1011.4 hPa | 1.78 mm | - | - | - |
| 1777659015 | 15° C | 100% | 1011.6 hPa | 3.56 mm | - | - | - |
| 1777657215 | 15° C | 100% | 1012.2 hPa | 2.79 mm | - | - | - |
| 1777656015 | 15° C | 99% | 1011.2 hPa | 2.29 mm | - | - | - |
| 1777652415 | 16.11° C | 100% | 1011 hPa | 0.25 mm | - | - | - |
| 1777648815 | 15° C | - | - | 1.02 mm | - | - | - |
| 1777645215 | 15° C | - | - | 4.32 mm | - | - | - |
| 1777642816 | 15° C | - | - | 3.56 mm | - | - | - |
| 1777642236 | 15° C | - | - | 3.3 mm | - | - | - |
| 1777634415 | 15.56° C | 100% | 1011.7 hPa | 5.33 mm | - | - | - |
| 1777630215 | 15.56° C | 100% | 1011.3 hPa | 6.6 mm | - | - | - |
* Rain latest hour (hover to see other rain measurements)
** Current wind speed in m/s (hover to see current wind gust speed)